Time;durP1;ratioP1;P1;durP2;ratioP2;P2;SDS_P1;SDS_P2;PMS_P1;PMS_P2;Temp;Humidity;BMP_temperature;BMP_pressure;BME280_temperature;BME280_humidity;BME280_pressure;Samples;Min_cycle;Max_cycle;Signal;HPM_P1;HPM_P2
2023/10/12 00:02:09;;;;;;;5.05;1.83;;;15.00;99.90;;;;;;4974914;28;20470;-58
2023/10/12 00:04:41;;;;;;;6.13;1.55;;;15.00;99.90;;;;;;4992709;28;20157;-62
2023/10/12 00:07:17;;;;;;;5.22;1.77;;;15.00;99.90;;;;;;4979780;28;20520;-60
2023/10/12 00:09:48;;;;;;;6.20;1.90;;;14.90;99.90;;;;;;4996265;28;20108;-58
2023/10/12 00:12:23;;;;;;;5.90;1.52;;;15.00;99.90;;;;;;4996762;28;20042;-60
2023/10/12 00:14:54;;;;;;;5.32;1.85;;;14.90;99.90;;;;;;4995964;28;20057;-61
2023/10/12 00:17:23;;;;;;;5.18;2.03;;;14.90;99.90;;;;;;4978709;28;20442;-62
2023/10/12 00:19:53;;;;;;;5.18;1.38;;;14.80;99.90;;;;;;4978386;28;20410;-61
2023/10/12 00:22:19;;;;;;;7.75;2.10;;;14.80;99.90;;;;;;4978232;28;20068;-62
2023/10/12 00:24:45;;;;;;;6.07;1.70;;;14.80;99.90;;;;;;4995325;28;20116;-61
2023/10/12 00:27:14;;;;;;;5.50;2.00;;;14.70;99.90;;;;;;4978287;28;20054;-61
2023/10/12 00:29:41;;;;;;;4.28;1.48;;;14.70;99.90;;;;;;4995195;28;20038;-62
2023/10/12 00:32:08;;;;;;;4.80;1.67;;;14.70;99.90;;;;;;4978197;28;20090;-63
2023/10/12 00:34:45;;;;;;;9.18;2.38;;;14.70;99.90;;;;;;4978608;28;20104;-61
2023/10/12 00:37:13;;;;;;;7.32;2.03;;;14.70;99.90;;;;;;4977826;28;20050;-58
2023/10/12 00:39:58;;;;;;;5.07;1.83;;;14.60;99.90;;;;;;4994450;28;20450;-62
2023/10/12 00:42:34;;;;;;;6.47;1.90;;;14.60;99.90;;;;;;4994767;28;20068;-60
2023/10/12 00:45:12;;;;;;;5.72;2.10;;;14.70;99.90;;;;;;4977847;28;20054;-61
2023/10/12 00:47:44;;;;;;;8.32;2.17;;;14.60;99.90;;;;;;4977404;28;20063;-61
2023/10/12 00:50:14;;;;;;;5.85;1.85;;;14.60;99.90;;;;;;4977156;28;20054;-61
2023/10/12 00:52:56;;;;;;;3.75;1.70;;;14.60;99.90;;;;;;4994870;28;20054;-61
2023/10/12 00:55:36;;;;;;;7.15;1.75;;;14.70;99.90;;;;;;4977927;28;20058;-62
2023/10/12 00:58:08;;;;;;;5.20;1.60;;;14.70;99.90;;;;;;4977523;28;20057;-61
2023/10/12 01:00:43;;;;;;;6.30;2.00;;;14.70;99.90;;;;;;4977516;28;20382;-59
2023/10/12 01:08:42;;;;;;;9.02;1.75;;;14.80;99.90;;;;;;4994303;28;20069;-60
2023/10/12 01:11:20;;;;;;;5.50;1.70;;;14.60;99.90;;;;;;4976907;28;20050;-62
2023/10/12 01:14:04;;;;;;;6.68;1.83;;;14.60;99.90;;;;;;4961566;28;20046;-61
2023/10/12 01:19:30;;;;;;;7.05;1.90;;;14.50;99.90;;;;;;4977151;28;20447;-62
2023/10/12 01:22:04;;;;;;;7.03;1.80;;;14.50;99.90;;;;;;4977333;28;20058;-62
2023/10/12 01:24:31;;;;;;;4.95;1.90;;;14.50;99.90;;;;;;4977229;28;20058;-62
2023/10/12 01:26:58;;;;;;;6.25;1.88;;;14.50;99.90;;;;;;4977175;28;20073;-62
2023/10/12 01:29:25;;;;;;;7.47;2.28;;;14.40;99.90;;;;;;4976635;28;20121;-62
2023/10/12 01:32:41;;;;;;;6.55;2.58;;;14.50;99.90;;;;;;4976793;28;20129;-62
2023/10/12 01:34:52;;;;;;;;;;;14.50;99.90;;;;;;4966878;28;20047;-63
2023/10/12 01:37:23;;;;;;;10.80;2.10;;;14.30;99.90;;;;;;4976581;28;20378;-61
2023/10/12 01:45:30;;;;;;;5.85;2.17;;;14.40;99.90;;;;;;4976812;28;20097;-62
2023/10/12 01:51:03;;;;;;;6.07;1.63;;;14.20;99.90;;;;;;4935686;29;20055;-62
2023/10/12 01:53:32;;;;;;;7.03;2.00;;;14.20;99.90;;;;;;4934299;28;20498;-62
2023/10/12 01:56:01;;;;;;;7.22;1.92;;;14.20;99.90;;;;;;4957387;28;20059;-62
2023/10/12 01:58:27;;;;;;;7.60;2.00;;;14.10;99.90;;;;;;4956994;28;20059;-62
2023/10/12 02:01:05;;;;;;;7.22;2.03;;;14.20;99.90;;;;;;4956566;28;20058;-62
2023/10/12 02:03:32;;;;;;;;;;;14.10;99.90;;;;;;4960343;28;20061;-61
2023/10/12 02:05:59;;;;;;;8.05;2.10;;;14.10;99.90;;;;;;4976186;28;19925;-62
2023/10/12 02:08:33;;;;;;;5.63;1.90;;;14.10;99.90;;;;;;4960224;28;20454;-62
2023/10/12 02:11:53;;;;;;;5.95;1.88;;;14.20;99.90;;;;;;4975850;28;20073;-63
2023/10/12 02:14:01;;;;;;;8.30;2.33;;;14.20;99.90;;;;;;4932212;29;20047;-61
2023/10/12 02:16:37;;;;;;;8.30;1.92;;;14.00;99.90;;;;;;4954542;29;20058;-62
2023/10/12 02:19:04;;;;;;;8.85;2.00;;;14.00;99.90;;;;;;4937390;29;20051;-62
2023/10/12 02:21:40;;;;;;;6.88;2.08;;;14.00;99.90;;;;;;4963465;28;20046;-62
2023/10/12 02:26:38;;;;;;;5.80;1.70;;;14.00;99.90;;;;;;4975739;28;20061;-62
2023/10/12 02:31:38;;;;;;;9.20;2.13;;;14.00;99.90;;;;;;4975492;28;20453;-62
2023/10/12 02:34:05;;;;;;;8.60;1.80;;;13.90;99.90;;;;;;4991569;28;20047;-58
2023/10/12 02:36:32;;;;;;;5.70;1.98;;;14.00;99.90;;;;;;4975715;28;20053;-62
2023/10/12 02:39:10;;;;;;;7.25;2.50;;;14.00;99.90;;;;;;4974895;28;20386;-62
2023/10/12 02:41:37;;;;;;;6.90;2.50;;;14.10;99.90;;;;;;4975309;28;20060;-60
2023/10/12 02:44:14;;;;;;;7.70;2.30;;;14.00;99.90;;;;;;4992499;28;20501;-60
2023/10/12 02:46:49;;;;;;;7.22;2.00;;;14.10;99.90;;;;;;4992562;28;20061;-62
2023/10/12 02:49:16;;;;;;;7.32;2.00;;;14.10;99.90;;;;;;4992423;28;20075;-61
2023/10/12 02:51:44;;;;;;;7.45;1.70;;;14.00;99.90;;;;;;4975010;28;20105;-60
2023/10/12 02:54:14;;;;;;;8.38;2.55;;;14.10;99.90;;;;;;4975385;28;20054;-61
2023/10/12 02:56:42;;;;;;;7.38;1.80;;;14.00;99.90;;;;;;4975320;28;20394;-61
2023/10/12 02:59:10;;;;;;;7.13;2.40;;;14.10;99.90;;;;;;4974722;28;20567;-60
2023/10/12 03:01:39;;;;;;;6.80;1.92;;;14.10;99.90;;;;;;4974944;28;20101;-62
2023/10/12 03:04:10;;;;;;;7.40;2.20;;;14.00;99.90;;;;;;4990855;28;20066;-60
2023/10/12 03:06:55;;;;;;;6.65;2.20;;;14.00;99.90;;;;;;4975010;28;20058;-61
2023/10/12 03:09:36;;;;;;;9.93;2.10;;;14.00;99.90;;;;;;4974445;28;20054;-62
2023/10/12 03:12:03;;;;;;;7.70;2.00;;;14.00;99.90;;;;;;4974709;28;20050;-62
2023/10/12 03:14:29;;;;;;;7.32;2.13;;;14.00;99.90;;;;;;4974824;28;20084;-61
2023/10/12 03:17:02;;;;;;;6.60;2.10;;;14.10;99.90;;;;;;4974900;28;20371;-61
2023/10/12 03:19:35;;;;;;;7.85;1.80;;;14.10;99.90;;;;;;4991720;28;20058;-61
2023/10/12 03:22:17;;;;;;;8.45;1.83;;;14.00;99.90;;;;;;4974904;28;20046;-61
2023/10/12 03:24:50;;;;;;;7.80;2.00;;;14.00;99.90;;;;;;4991735;28;20073;-62
2023/10/12 03:27:18;;;;;;;6.75;1.80;;;14.00;99.90;;;;;;4974664;28;20077;-62
2023/10/12 03:29:51;;;;;;;9.13;2.10;;;14.10;99.90;;;;;;4974313;28;20053;-61
2023/10/12 03:32:23;;;;;;;4.85;2.03;;;14.10;99.90;;;;;;4974451;28;20386;-60
2023/10/12 03:37:16;;;;;;;6.00;2.30;;;14.10;99.90;;;;;;4974340;28;20049;-60
2023/10/12 03:44:54;;;;;;;8.63;2.30;;;14.00;99.90;;;;;;4991932;28;20450;-58
2023/10/12 03:52:19;;;;;;;5.55;2.03;;;14.00;99.90;;;;;;4992139;28;20204;-60
2023/10/12 03:55:16;;;;;;;6.95;1.77;;;14.00;99.90;;;;;;4974990;28;20058;-61
2023/10/12 03:58:00;;;;;;;7.25;1.95;;;14.00;99.90;;;;;;4991898;28;20053;-61
2023/10/12 04:00:50;;;;;;;4.70;1.77;;;14.00;99.90;;;;;;4992034;28;20500;-60
2023/10/12 04:03:33;;;;;;;7.60;2.40;;;14.00;99.90;;;;;;4991812;28;20065;-59
2023/10/12 04:06:05;;;;;;;6.38;1.90;;;14.10;99.90;;;;;;4975525;28;20145;-61
2023/10/12 04:18:42;;;;;;;8.60;1.83;;;14.10;99.90;;;;;;4992022;28;20199;-60
2023/10/12 04:21:10;;;;;;;6.25;1.70;;;14.10;99.90;;;;;;4991394;28;20073;-61
2023/10/12 04:24:16;;;;;;;5.95;1.80;;;14.00;99.90;;;;;;4974708;28;20465;-57
2023/10/12 04:29:10;;;;;;;5.00;2.05;;;14.00;99.90;;;;;;4991389;28;20046;-60
2023/10/12 04:34:12;;;;;;;7.78;2.08;;;14.10;99.90;;;;;;4991581;28;20447;-61
2023/10/12 04:36:45;;;;;;;7.05;2.30;;;14.00;99.90;;;;;;4992254;28;20050;-58
2023/10/12 04:39:24;;;;;;;6.50;2.17;;;14.10;99.90;;;;;;4991529;28;20054;-60
2023/10/12 04:47:05;;;;;;;6.63;1.90;;;14.10;99.90;;;;;;4991110;28;20061;-55
2023/10/12 04:57:34;;;;;;;8.85;2.40;;;14.10;99.90;;;;;;4994810;28;20054;-60
2023/10/12 05:07:56;;;;;;;9.82;2.50;;;14.10;99.90;;;;;;4984014;28;20113;-60
2023/10/12 05:10:27;;;;;;;6.70;2.03;;;14.10;99.90;;;;;;4978573;28;20105;-59
2023/10/12 05:12:57;;;;;;;5.50;2.05;;;14.20;99.90;;;;;;4990763;28;20109;-61
2023/10/12 05:15:27;;;;;;;7.90;2.17;;;14.10;99.90;;;;;;4974544;28;20110;-60
2023/10/12 05:17:53;;;;;;;6.70;2.30;;;14.00;99.90;;;;;;4975779;28;20113;-59
2023/10/12 05:20:23;;;;;;;10.00;2.10;;;14.10;99.90;;;;;;4957461;28;20054;-61
2023/10/12 05:22:50;;;;;;;10.10;2.40;;;14.10;99.90;;;;;;4977020;28;20047;-61
2023/10/12 05:25:16;;;;;;;8.63;2.10;;;14.10;99.90;;;;;;4958371;28;20113;-61
2023/10/12 05:28:03;;;;;;;6.63;2.03;;;14.00;99.90;;;;;;4975580;28;20067;-60
2023/10/12 05:30:28;;;;;;;10.07;2.35;;;14.10;99.90;;;;;;4975144;28;20384;-61
2023/10/12 05:33:04;;;;;;;8.63;2.25;;;14.10;99.90;;;;;;4988888;28;20073;-61
2023/10/12 05:35:52;;;;;;;7.75;2.20;;;14.10;99.90;;;;;;4995125;28;20058;-60
2023/10/12 05:38:18;;;;;;;7.15;2.22;;;13.90;99.90;;;;;;4977484;28;20055;-60
2023/10/12 05:40:53;;;;;;;7.43;1.98;;;14.00;99.90;;;;;;4977913;28;20117;-61
2023/10/12 05:43:22;;;;;;;8.88;2.38;;;13.90;99.90;;;;;;4993209;28;20069;-60
2023/10/12 05:45:48;;;;;;;7.18;2.10;;;14.00;99.90;;;;;;4984892;28;20078;-59
2023/10/12 05:48:19;;;;;;;12.23;2.80;;;14.00;99.90;;;;;;4975106;28;20047;-61
2023/10/12 05:50:49;;;;;;;5.90;2.08;;;14.00;99.90;;;;;;4975338;28;20046;-61
2023/10/12 05:53:16;;;;;;;8.18;2.58;;;14.00;99.90;;;;;;4992033;28;20471;-59
2023/10/12 05:55:47;;;;;;;7.68;2.10;;;13.90;99.90;;;;;;4977279;28;20050;-58
2023/10/12 05:58:15;;;;;;;9.05;2.90;;;13.90;99.90;;;;;;4977606;28;20046;-60
2023/10/12 06:00:44;;;;;;;8.15;2.60;;;13.80;99.90;;;;;;4958123;28;20155;-61
2023/10/12 06:03:20;;;;;;;10.00;2.15;;;13.80;99.90;;;;;;4974497;28;20054;-61
2023/10/12 06:05:48;;;;;;;9.35;2.25;;;13.80;99.90;;;;;;4974740;28;20057;-61
2023/10/12 06:08:16;;;;;;;7.18;2.35;;;13.80;99.90;;;;;;4974309;28;20415;-60
2023/10/12 06:10:43;;;;;;;8.55;2.47;;;13.80;99.90;;;;;;4974624;28;20448;-61
2023/10/12 06:13:12;;;;;;;6.07;2.40;;;13.90;99.90;;;;;;4976027;28;20046;-61
2023/10/12 06:15:40;;;;;;;9.80;2.38;;;13.90;99.90;;;;;;4974884;28;20073;-62
2023/10/12 06:21:09;;;;;;;7.15;2.60;;;13.90;99.90;;;;;;4958027;28;20471;-60
2023/10/12 06:23:39;;;;;;;11.32;3.45;;;13.90;99.90;;;;;;4975251;28;20042;-61
2023/10/12 06:26:09;;;;;;;10.02;2.85;;;13.90;99.90;;;;;;4964991;28;20050;-61
2023/10/12 06:28:38;;;;;;;9.57;2.72;;;13.90;99.90;;;;;;4979338;28;20042;-61
2023/10/12 06:31:07;;;;;;;7.80;3.28;;;13.80;99.90;;;;;;4995410;28;20050;-61
2023/10/12 06:33:34;;;;;;;7.30;3.20;;;13.90;99.90;;;;;;4993786;28;20046;-60
2023/10/12 06:36:01;;;;;;;6.45;2.92;;;13.80;99.90;;;;;;4956694;29;20106;-60
2023/10/12 06:38:47;;;;;;;5.70;2.83;;;13.80;99.90;;;;;;4956427;29;20075;-58
2023/10/12 06:41:58;;;;;;;5.40;2.75;;;13.90;99.90;;;;;;4941232;28;20066;-60
2023/10/12 06:44:27;;;;;;;7.15;3.33;;;13.90;99.90;;;;;;4973232;28;20061;-58
2023/10/12 06:46:56;;;;;;;9.55;3.40;;;14.00;99.90;;;;;;4994803;28;20398;-59
2023/10/12 06:49:24;;;;;;;7.85;3.05;;;14.00;99.90;;;;;;4995013;28;20069;-61
2023/10/12 06:51:54;;;;;;;9.10;3.70;;;14.00;99.90;;;;;;4994994;28;20324;-60
2023/10/12 06:54:39;;;;;;;9.13;3.05;;;14.00;99.90;;;;;;4977633;28;20497;-63
2023/10/12 07:00:33;;;;;;;7.45;2.80;;;14.00;99.90;;;;;;4977828;28;20050;-61
2023/10/12 07:02:34;;;;;;;9.30;3.35;;;14.00;99.90;;;;;;4967072;28;20439;-60
2023/10/12 07:05:04;;;;;;;7.13;2.80;;;13.90;99.90;;;;;;4977085;28;20062;-59
2023/10/12 07:07:41;;;;;;;7.80;3.20;;;14.00;99.90;;;;;;4977350;28;20050;-60
2023/10/12 07:12:42;;;;;;;9.02;3.70;;;14.10;99.90;;;;;;4994305;28;20342;-61
2023/10/12 07:15:14;;;;;;;8.40;3.17;;;14.10;99.90;;;;;;4994044;28;20060;-61
2023/10/12 07:17:48;;;;;;;8.00;2.88;;;14.00;99.90;;;;;;4994510;28;20050;-59
2023/10/12 07:20:53;;;;;;;8.35;3.65;;;14.00;99.90;;;;;;4977128;28;20383;-61
2023/10/12 07:23:15;;;;;;;7.68;2.72;;;14.10;99.90;;;;;;4983972;28;20371;-60
2023/10/12 07:25:48;;;;;;;6.53;2.97;;;14.20;99.90;;;;;;4993922;28;20050;-61
2023/10/12 07:28:33;;;;;;;7.93;3.00;;;14.30;99.90;;;;;;4994138;28;20047;-60
2023/10/12 07:33:58;;;;;;;9.68;3.40;;;14.50;99.90;;;;;;4979057;28;20105;-60
2023/10/12 07:41:54;;;;;;;9.27;3.10;;;15.00;99.90;;;;;;4978987;28;20050;-60
2023/10/12 07:44:22;;;;;;;8.70;2.92;;;15.20;99.90;;;;;;4994080;28;20124;-60
2023/10/12 07:46:48;;;;;;;9.15;3.00;;;15.20;99.90;;;;;;4993798;28;20356;-60
2023/10/12 07:49:37;;;;;;;7.18;2.65;;;15.40;99.90;;;;;;4994218;28;20060;-60
2023/10/12 07:57:20;;;;;;;11.82;2.85;;;15.70;99.90;;;;;;4976730;28;20092;-60
2023/10/12 07:59:58;;;;;;;8.02;2.20;;;15.80;99.90;;;;;;4994240;28;20073;-59
2023/10/12 08:13:39;;;;;;;;;;;15.80;99.90;;;;;;4989432;28;20053;-59
2023/10/12 08:16:04;;;;;;;8.77;2.63;;;15.80;99.90;;;;;;4993556;28;19921;-59
2023/10/12 08:31:55;;;;;;;5.75;1.75;;;15.60;99.90;;;;;;4996853;28;20623;-58
2023/10/12 08:39:38;;;;;;;7.47;1.98;;;15.60;99.90;;;;;;4977485;28;20449;-58
2023/10/12 08:44:51;;;;;;;9.18;2.45;;;15.60;99.90;;;;;;4997123;28;20053;-60
2023/10/12 08:47:25;;;;;;;10.48;2.30;;;15.50;99.90;;;;;;4996725;28;20105;-59
2023/10/12 08:49:53;;;;;;;8.00;2.28;;;15.50;99.90;;;;;;4979335;28;20494;-59
2023/10/12 08:52:29;;;;;;;7.00;2.33;;;15.50;99.90;;;;;;4996722;28;20054;-59
2023/10/12 08:55:12;;;;;;;8.32;2.45;;;15.50;99.90;;;;;;4996877;28;20086;-59
2023/10/12 08:58:02;;;;;;;7.05;2.58;;;15.50;99.90;;;;;;4996670;28;20375;-59
2023/10/12 09:03:14;;;;;;;10.27;3.08;;;15.40;99.90;;;;;;4996359;28;20580;-59
2023/10/12 09:05:41;;;;;;;10.05;2.65;;;15.40;99.90;;;;;;4996833;28;20054;-59
2023/10/12 09:08:39;;;;;;;9.57;2.78;;;15.40;99.90;;;;;;4979077;28;20062;-59
2023/10/12 09:11:02;;;;;;;8.45;2.60;;;15.50;99.90;;;;;;4996119;28;20130;-59
2023/10/12 09:13:36;;;;;;;7.80;2.28;;;15.40;99.90;;;;;;4996160;28;20457;-60
2023/10/12 09:16:11;;;;;;;7.70;2.45;;;15.50;99.90;;;;;;4996276;28;20428;-58
2023/10/12 09:18:49;;;;;;;12.52;2.90;;;15.50;99.90;;;;;;4996397;28;20054;-60
2023/10/12 09:23:58;;;;;;;9.52;2.35;;;15.50;99.90;;;;;;4995536;28;20462;-60
2023/10/12 09:26:33;;;;;;;7.70;2.50;;;15.50;99.90;;;;;;4995768;28;20073;-59
2023/10/12 09:36:43;;;;;;;7.90;2.80;;;15.60;99.90;;;;;;4978457;28;20061;-59
2023/10/12 09:39:14;;;;;;;10.95;3.33;;;15.60;99.90;;;;;;4978308;28;20050;-59
2023/10/12 09:41:44;;;;;;;7.68;2.88;;;15.70;99.90;;;;;;4995790;28;20526;-59
2023/10/12 09:44:13;;;;;;;6.32;2.17;;;15.80;99.90;;;;;;4978915;28;20058;-61
2023/10/12 09:46:47;;;;;;;12.23;2.33;;;15.80;99.90;;;;;;4978611;28;20046;-58
2023/10/12 09:49:22;;;;;;;7.25;2.15;;;15.80;99.90;;;;;;4995566;28;20058;-60
2023/10/12 09:51:54;;;;;;;9.63;2.67;;;15.80;99.90;;;;;;4995279;28;20466;-62
2023/10/12 09:54:28;;;;;;;5.95;2.20;;;15.80;99.90;;;;;;4978288;28;20050;-61
2023/10/12 09:57:04;;;;;;;7.50;2.17;;;15.80;99.90;;;;;;4995410;28;20046;-61
2023/10/12 09:59:31;;;;;;;11.05;2.22;;;15.80;99.90;;;;;;4995651;28;20042;-61
2023/10/12 10:04:46;;;;;;;9.55;2.10;;;15.90;99.90;;;;;;4994882;28;20451;-62
2023/10/12 10:07:26;;;;;;;6.78;2.67;;;15.80;99.90;;;;;;4951871;28;20337;-60
2023/10/12 10:09:56;;;;;;;8.18;2.45;;;15.90;99.90;;;;;;4955975;28;20057;-61
2023/10/12 10:12:27;;;;;;;4.25;2.22;;;15.90;99.90;;;;;;4942649;28;20043;-60
2023/10/12 10:14:57;;;;;;;6.88;2.83;;;16.00;99.90;;;;;;4968007;28;20383;-61
2023/10/12 10:17:24;;;;;;;7.82;2.65;;;16.10;99.90;;;;;;4955494;28;20046;-60
2023/10/12 10:20:19;;;;;;;8.38;3.00;;;16.10;99.90;;;;;;4967895;28;20055;-60
2023/10/12 10:22:59;;;;;;;9.55;3.40;;;16.10;99.90;;;;;;4970326;28;20043;-61
2023/10/12 10:25:28;;;;;;;7.20;2.28;;;16.20;99.90;;;;;;4939668;29;20059;-61
2023/10/12 10:27:58;;;;;;;7.68;2.55;;;16.20;99.90;;;;;;4939598;29;20062;-60
2023/10/12 10:30:25;;;;;;;7.53;2.13;;;16.30;99.90;;;;;;4956545;29;20051;-60
2023/10/12 10:33:12;;;;;;;8.73;2.00;;;16.20;99.90;;;;;;4970638;28;20061;-60
2023/10/12 10:36:10;;;;;;;8.20;1.80;;;16.00;99.90;;;;;;4991927;28;20803;-60
2023/10/12 10:38:53;;;;;;;8.05;2.17;;;16.00;99.90;;;;;;4994715;28;20046;-61
2023/10/12 10:41:46;;;;;;;8.30;2.42;;;16.00;99.90;;;;;;4977103;28;20062;-61
2023/10/12 10:44:16;;;;;;;6.07;2.55;;;15.90;99.90;;;;;;4939060;29;20392;-61
2023/10/12 10:46:49;;;;;;;6.35;2.10;;;15.80;99.90;;;;;;4956231;28;20047;-61
2023/10/12 10:49:16;;;;;;;7.72;1.88;;;15.80;99.90;;;;;;4974489;28;20050;-59
2023/10/12 10:51:48;;;;;;;9.77;2.30;;;15.80;99.90;;;;;;4976977;28;21525;-60
2023/10/12 10:54:18;;;;;;;8.45;2.20;;;15.70;99.90;;;;;;4977106;28;20050;-59
2023/10/12 10:56:49;;;;;;;7.63;2.30;;;15.80;99.90;;;;;;4994125;28;20408;-59
2023/10/12 10:59:19;;;;;;;6.25;1.55;;;15.70;99.90;;;;;;4980610;28;20047;-60
2023/10/12 11:01:49;;;;;;;9.43;1.67;;;15.70;99.90;;;;;;4961422;28;20046;-58
2023/10/12 11:04:36;;;;;;;8.90;2.10;;;15.70;99.90;;;;;;4994014;28;20068;-60
2023/10/12 11:07:03;;;;;;;5.43;1.80;;;15.60;99.90;;;;;;4994217;28;20058;-59
2023/10/12 11:12:31;;;;;;;7.05;1.92;;;15.60;99.90;;;;;;4970565;28;20380;-58
2023/10/12 11:15:00;;;;;;;8.32;2.13;;;15.50;99.90;;;;;;4956939;28;20432;-60
2023/10/12 11:17:35;;;;;;;9.20;2.25;;;15.40;99.90;;;;;;4957396;28;20467;-61
2023/10/12 11:20:08;;;;;;;8.05;2.33;;;15.50;99.90;;;;;;4974130;28;20066;-61
2023/10/12 11:22:37;;;;;;;6.32;2.15;;;15.60;99.90;;;;;;4983956;28;20074;-60
2023/10/12 11:25:15;;;;;;;11.85;2.40;;;15.40;99.90;;;;;;4977167;28;20054;-58
2023/10/12 11:27:42;;;;;;;11.88;2.00;;;15.50;99.90;;;;;;4993956;28;20466;-60
2023/10/12 11:30:18;;;;;;;9.25;1.77;;;15.60;99.90;;;;;;4976946;28;20470;-61
2023/10/12 11:32:53;;;;;;;7.75;2.00;;;15.50;99.90;;;;;;4994365;28;20050;-60
2023/10/12 11:35:40;;;;;;;8.68;2.17;;;15.60;99.90;;;;;;4976875;28;20050;-60
2023/10/12 11:38:16;;;;;;;8.25;2.45;;;15.50;99.90;;;;;;4993810;28;20050;-60
2023/10/12 11:40:43;;;;;;;9.98;2.25;;;15.40;99.90;;;;;;4993956;28;20141;-60
2023/10/12 11:43:09;;;;;;;11.50;2.42;;;15.30;99.90;;;;;;4976348;28;20077;-61
2023/10/12 11:45:36;;;;;;;11.68;2.45;;;15.20;99.90;;;;;;4976630;28;20066;-60
2023/10/12 11:48:22;;;;;;;9.75;2.00;;;15.10;99.90;;;;;;4976628;28;20113;-62
2023/10/12 11:50:49;;;;;;;7.78;1.92;;;15.10;99.90;;;;;;4993883;28;20452;-58
2023/10/12 11:53:16;;;;;;;7.47;1.90;;;15.10;99.90;;;;;;4994120;28;20059;-61
2023/10/12 11:55:49;;;;;;;6.47;2.10;;;14.90;99.90;;;;;;4994024;28;20116;-59
2023/10/12 11:58:19;;;;;;;10.07;1.90;;;14.80;99.90;;;;;;4993858;28;20459;-59
2023/10/12 12:00:50;;;;;;;10.38;3.00;;;14.70;99.90;;;;;;4977359;28;20054;-59
2023/10/12 12:03:17;;;;;;;8.82;2.65;;;14.60;99.90;;;;;;4997927;28;20050;-60
2023/10/12 12:05:50;;;;;;;11.13;2.33;;;14.60;99.90;;;;;;4980747;28;20074;-60
2023/10/12 12:08:18;;;;;;;9.32;2.40;;;14.60;99.90;;;;;;4980440;28;20054;-60
2023/10/12 12:10:53;;;;;;;7.55;2.03;;;14.40;99.90;;;;;;4980481;28;20050;-61
2023/10/12 12:13:20;;;;;;;9.65;2.30;;;14.20;99.90;;;;;;4996996;28;20061;-61
2023/10/12 12:15:48;;;;;;;9.18;2.38;;;14.20;99.90;;;;;;4997075;28;20056;-63
2023/10/12 12:18:19;;;;;;;8.82;2.00;;;14.20;99.90;;;;;;4979873;28;20112;-61
2023/10/12 12:20:51;;;;;;;7.70;2.65;;;14.00;99.90;;;;;;4997275;28;20379;-61
2023/10/12 12:23:19;;;;;;;4.90;1.98;;;14.10;99.90;;;;;;4996778;28;20437;-61
2023/10/12 12:25:45;;;;;;;8.52;2.03;;;14.00;99.90;;;;;;4977772;28;20126;-61
2023/10/12 12:28:15;;;;;;;5.97;1.98;;;13.90;99.90;;;;;;4967164;28;20061;-61
2023/10/12 12:30:46;;;;;;;7.60;1.90;;;13.90;99.90;;;;;;4940946;29;20047;-62
2023/10/12 12:33:16;;;;;;;9.75;2.03;;;13.90;99.90;;;;;;4968845;28;20086;-61
2023/10/12 12:35:45;;;;;;;8.25;2.00;;;13.80;99.90;;;;;;4997143;28;20050;-62
2023/10/12 12:38:25;;;;;;;6.57;2.10;;;13.90;99.90;;;;;;4979208;28;20471;-62
2023/10/12 12:40:52;;;;;;;7.60;2.80;;;13.90;99.90;;;;;;4996929;28;20051;-62
2023/10/12 12:43:20;;;;;;;5.88;2.30;;;13.90;99.90;;;;;;4979017;28;20379;-61
2023/10/12 12:45:46;;;;;;;4.65;1.95;;;13.90;99.90;;;;;;4979777;28;20085;-61
2023/10/12 12:48:13;;;;;;;11.15;2.70;;;14.00;99.90;;;;;;4963274;28;20137;-62
2023/10/12 12:50:44;;;;;;;6.85;2.30;;;14.00;99.90;;;;;;4979509;28;20054;-61
2023/10/12 12:53:11;;;;;;;5.78;1.77;;;13.90;99.90;;;;;;4996575;28;20054;-61
2023/10/12 12:55:40;;;;;;;6.35;1.95;;;14.00;99.90;;;;;;4979226;28;20077;-62
2023/10/12 12:58:14;;;;;;;6.05;1.80;;;14.00;99.90;;;;;;4975766;28;20058;-61
2023/10/12 13:00:42;;;;;;;7.97;2.40;;;14.00;99.90;;;;;;4976480;28;20047;-61
2023/10/12 13:03:09;;;;;;;8.38;2.10;;;13.90;99.90;;;;;;4956733;28;20050;-61
2023/10/12 13:05:36;;;;;;;6.40;2.00;;;13.90;99.90;;;;;;4996634;28;20046;-61
2023/10/12 13:08:02;;;;;;;5.57;1.77;;;13.90;99.90;;;;;;4979273;28;20110;-60
2023/10/12 13:10:29;;;;;;;11.27;2.55;;;13.80;99.90;;;;;;4970905;28;20095;-60
2023/10/12 13:13:01;;;;;;;7.78;2.50;;;13.80;99.90;;;;;;4963322;28;20053;-62
2023/10/12 13:15:27;;;;;;;6.80;2.20;;;13.70;99.90;;;;;;4978903;28;20065;-61
2023/10/12 13:17:56;;;;;;;7.63;2.33;;;13.80;99.90;;;;;;4970563;28;20119;-61
2023/10/12 13:20:22;;;;;;;8.90;2.25;;;13.60;99.90;;;;;;4955794;29;20055;-61
2023/10/12 13:22:49;;;;;;;7.57;2.40;;;13.70;99.90;;;;;;4960377;28;20105;-62
2023/10/12 13:25:18;;;;;;;8.10;2.17;;;13.70;99.90;;;;;;4979045;28;20057;-61
2023/10/12 13:27:49;;;;;;;10.70;2.72;;;13.70;99.90;;;;;;4962611;28;20134;-62
2023/10/12 13:30:16;;;;;;;8.55;2.70;;;13.60;99.90;;;;;;4978548;28;20065;-62
2023/10/12 13:32:42;;;;;;;7.72;3.15;;;13.80;99.90;;;;;;4951930;28;20447;-61
2023/10/12 13:35:28;;;;;;;7.30;2.38;;;13.60;99.90;;;;;;4972395;28;20464;-61
2023/10/12 13:37:58;;;;;;;7.50;2.30;;;13.60;99.90;;;;;;4939978;29;20066;-62
2023/10/12 13:40:26;;;;;;;7.07;2.50;;;13.60;99.90;;;;;;4923924;29;20047;-61
2023/10/12 13:42:52;;;;;;;9.00;2.78;;;13.60;99.90;;;;;;4978136;28;20054;-61
2023/10/12 13:45:19;;;;;;;5.95;2.78;;;13.60;99.90;;;;;;4995783;28;20478;-61
2023/10/12 13:47:46;;;;;;;7.85;2.30;;;13.60;99.90;;;;;;4978228;28;20098;-61
2023/10/12 13:50:14;;;;;;;6.72;2.40;;;13.60;99.90;;;;;;4995618;28;20046;-62
2023/10/12 13:52:41;;;;;;;9.52;2.58;;;13.60;99.90;;;;;;4978118;28;20042;-60
2023/10/12 13:55:13;;;;;;;5.30;2.08;;;13.60;99.90;;;;;;4995794;28;20395;-61
2023/10/12 13:57:50;;;;;;;10.00;2.65;;;13.50;99.90;;;;;;4977953;28;20101;-60
2023/10/12 14:00:26;;;;;;;7.68;2.88;;;13.60;99.90;;;;;;4996092;28;20344;-62
2023/10/12 14:02:57;;;;;;;8.90;2.65;;;13.50;99.90;;;;;;4978240;28;20090;-61
2023/10/12 14:05:29;;;;;;;8.40;3.00;;;13.50;99.90;;;;;;4995161;28;20058;-61
2023/10/12 14:08:00;;;;;;;8.27;2.55;;;13.50;99.90;;;;;;4995224;28;20054;-61
2023/10/12 14:10:27;;;;;;;7.53;2.30;;;13.40;99.90;;;;;;4978296;28;20485;-61
2023/10/12 14:12:54;;;;;;;6.85;2.40;;;13.50;99.90;;;;;;4986959;28;20058;-61
2023/10/12 14:15:27;;;;;;;6.63;2.08;;;13.50;99.90;;;;;;4947527;29;20059;-60
2023/10/12 14:17:56;;;;;;;7.53;2.35;;;13.50;99.90;;;;;;4946533;28;20062;-61
2023/10/12 14:20:28;;;;;;;5.00;2.33;;;13.50;99.90;;;;;;4975697;28;20506;-61
2023/10/12 14:22:57;;;;;;;6.85;2.50;;;13.40;99.90;;;;;;4986091;28;20051;-59
2023/10/12 14:25:30;;;;;;;6.32;2.38;;;13.50;99.90;;;;;;4977267;28;20050;-61
2023/10/12 14:28:00;;;;;;;5.03;2.35;;;13.50;99.90;;;;;;4977583;28;20053;-60
2023/10/12 14:30:29;;;;;;;7.50;2.75;;;13.40;99.90;;;;;;4977515;28;20542;-60
2023/10/12 14:33:06;;;;;;;8.00;3.08;;;13.40;99.90;;;;;;4994222;28;20462;-62
2023/10/12 14:35:37;;;;;;;5.43;2.72;;;13.40;99.90;;;;;;4994738;28;20058;-61
2023/10/12 14:38:08;;;;;;;7.25;2.60;;;13.40;99.90;;;;;;4977004;28;20422;-61
2023/10/12 14:40:40;;;;;;;8.25;2.80;;;13.30;99.90;;;;;;4994403;28;20055;-60
2023/10/12 14:43:11;;;;;;;7.07;3.00;;;13.30;99.90;;;;;;4977451;28;20432;-61
2023/10/12 14:46:03;;;;;;;7.80;2.95;;;13.30;99.90;;;;;;4994349;28;20065;-61
2023/10/12 14:48:29;;;;;;;8.18;3.13;;;13.40;99.90;;;;;;4979365;28;20712;-60
2023/10/12 14:51:13;;;;;;;9.75;4.13;;;13.30;99.90;;;;;;4958029;28;20051;-60
2023/10/12 14:53:40;;;;;;;8.18;3.70;;;13.40;99.90;;;;;;4974193;28;20054;-58
2023/10/12 14:56:08;;;;;;;7.35;4.10;;;13.40;99.90;;;;;;4993660;28;20550;-61
2023/10/12 14:58:34;;;;;;;6.53;3.25;;;13.40;99.90;;;;;;4993687;28;20046;-61
2023/10/12 15:01:07;;;;;;;9.23;3.63;;;13.50;99.90;;;;;;4994506;28;20050;-60
2023/10/12 15:03:34;;;;;;;8.60;3.60;;;13.40;99.90;;;;;;4994013;28;20066;-61
2023/10/12 15:06:02;;;;;;;6.82;3.22;;;13.40;99.90;;;;;;4960938;28;20055;-61
2023/10/12 15:08:29;;;;;;;9.35;3.42;;;13.40;99.90;;;;;;4981241;28;20054;-61
2023/10/12 15:10:56;;;;;;;7.25;3.38;;;13.40;99.90;;;;;;4953788;28;20046;-62
2023/10/12 15:13:25;;;;;;;9.00;4.00;;;13.40;99.90;;;;;;4969730;28;20128;-62
2023/10/12 15:15:53;;;;;;;10.13;4.13;;;13.30;99.90;;;;;;4992017;28;20116;-62
2023/10/12 15:18:24;;;;;;;9.43;3.75;;;13.40;99.90;;;;;;4976018;28;20046;-62
2023/10/12 15:20:52;;;;;;;9.48;4.10;;;13.40;99.90;;;;;;4976675;28;20130;-62
2023/10/12 15:23:24;;;;;;;9.15;4.13;;;13.30;99.90;;;;;;4993891;28;20054;-58
2023/10/12 15:25:58;;;;;;;8.18;3.83;;;13.40;99.90;;;;;;4993315;28;20494;-61
2023/10/12 15:28:25;;;;;;;8.10;4.07;;;13.40;99.90;;;;;;4993817;28;20057;-61
2023/10/12 15:30:52;;;;;;;8.57;4.20;;;13.30;99.90;;;;;;4993609;28;20113;-62
2023/10/12 15:33:18;;;;;;;7.40;4.15;;;13.40;99.90;;;;;;4976001;28;20109;-62
2023/10/12 15:35:45;;;;;;;6.88;4.50;;;13.50;99.90;;;;;;4975669;28;20042;-61